Time;durP1;ratioP1;P1;durP2;ratioP2;P2;SDS_P1;SDS_P2;PMS_P1;PMS_P2;Temp;Humidity;BMP_temperature;BMP_pressure;BME280_temperature;BME280_humidity;BME280_pressure;Samples;Min_cycle;Max_cycle;Signal;HPM_P1;HPM_P2
2021/08/09 00:01:54;;;;;;;;;1.00;1.00;;;;;;;;4669058;30;55394;-79
2021/08/09 00:04:25;;;;;;;;;1.00;1.00;;;;;;;;4689609;30;47700;-78
2021/08/09 00:07:09;;;;;;;;;1.25;1.00;;;;;;;;4674524;30;45571;-78
2021/08/09 00:09:34;;;;;;;;;1.00;1.00;;;;;;;;4686789;30;45685;-78
2021/08/09 00:12:00;;;;;;;;;1.00;1.00;;;;;;;;4672495;30;45531;-78
2021/08/09 00:14:38;;;;;;;;;1.25;1.00;;;;;;;;4692359;30;45461;-77
2021/08/09 00:26:09;;;;;;;;;1.50;1.00;;;;;;;;4609841;30;46488;-78
2021/08/09 00:28:37;;;;;;;;;1.00;1.00;;;;;;;;4621046;30;45924;-82
2021/08/09 00:31:14;;;;;;;;;2.00;1.00;;;;;;;;4622630;30;45410;-78
2021/08/09 00:33:39;;;;;;;;;1.50;1.50;;;;;;;;4644506;24;45639;-78
2021/08/09 00:36:26;;;;;;;;;1.00;1.00;;;;;;;;4696272;30;45970;-78
2021/08/09 00:38:51;;;;;;;;;4.50;1.00;;;;;;;;4695888;30;45792;-78
2021/08/09 00:41:23;;;;;;;;;0.67;0.67;;;;;;;;4683493;30;45790;-78
2021/08/09 00:43:48;;;;;;;;;1.75;1.00;;;;;;;;4696765;30;45584;-77
2021/08/09 00:46:19;;;;;;;;;1.00;1.00;;;;;;;;4680500;30;47548;-78
2021/08/09 00:48:44;;;;;;;;;2.00;2.00;;;;;;;;4681929;30;45587;-78
2021/08/09 00:51:57;;;;;;;;;1.00;1.00;;;;;;;;4702284;30;45625;-78
2021/08/09 01:01:10;;;;;;;;;1.25;1.00;;;;;;;;4608005;30;45647;-80
2021/08/09 01:03:36;;;;;;;;;2.00;1.00;;;;;;;;4605271;30;46192;-80
2021/08/09 01:06:01;;;;;;;;;2.00;2.00;;;;;;;;4590278;30;50535;-80
2021/08/09 01:08:52;;;;;;;;;2.50;1.00;;;;;;;;4614455;30;45696;-82
2021/08/09 01:11:30;;;;;;;;;3.00;2.00;;;;;;;;4560022;31;45857;-80
2021/08/09 01:17:18;;;;;;;;;1.75;1.75;;;;;;;;4548595;31;45409;-80
2021/08/09 01:20:09;;;;;;;;;1.00;1.00;;;;;;;;4553778;31;45553;-80
2021/08/09 01:23:12;;;;;;;;;1.00;1.00;;;;;;;;4555084;31;45964;-80
2021/08/09 01:25:44;;;;;;;;;1.00;1.00;;;;;;;;4555521;31;47997;-81
2021/08/09 01:28:09;;;;;;;;;3.50;1.00;;;;;;;;4631190;25;45597;-87
2021/08/09 01:30:36;;;;;;;;;1.00;1.00;;;;;;;;4657067;30;47045;-87
2021/08/09 01:33:02;;;;;;;;;2.00;1.00;;;;;;;;4724048;24;45613;-87
2021/08/09 01:35:27;;;;;;;;;1.25;1.25;;;;;;;;4694737;30;45332;-88
2021/08/09 01:37:54;;;;;;;;;1.00;1.00;;;;;;;;4692986;30;45624;-86
2021/08/09 01:40:20;;;;;;;;;2.50;1.00;;;;;;;;4701572;30;45544;-87
2021/08/09 01:42:45;;;;;;;;;1.00;1.00;;;;;;;;4697526;30;46594;-87
2021/08/09 01:45:15;;;;;;;;;2.50;1.00;;;;;;;;4801394;24;47076;-86
2021/08/09 01:52:50;;;;;;;;;1.25;1.00;;;;;;;;3766502;28;45612;-80
2021/08/09 01:58:59;;;;;;;;;0.00;0.00;;;;;;;;4619793;30;45433;-79
2021/08/09 02:01:33;;;;;;;;;3.00;1.00;;;;;;;;4608079;30;45808;-78
2021/08/09 02:03:58;;;;;;;;;2.00;1.00;;;;;;;;4780229;24;45490;-78
2021/08/09 02:06:24;;;;;;;;;1.50;1.50;;;;;;;;4696617;30;45589;-78
2021/08/09 02:08:49;;;;;;;;;0.00;0.00;;;;;;;;4706427;30;45465;-78
2021/08/09 02:11:16;;;;;;;;;2.00;1.00;;;;;;;;4709283;30;46163;-77
2021/08/09 02:14:04;;;;;;;;;2.75;1.00;;;;;;;;4706421;30;45640;-81
2021/08/09 02:16:42;;;;;;;;;1.00;0.75;;;;;;;;4702068;30;45560;-78
2021/08/09 02:19:07;;;;;;;;;2.00;1.00;;;;;;;;4702405;30;45701;-79
2021/08/09 02:21:39;;;;;;;;;1.33;1.00;;;;;;;;4705170;30;47811;-77
2021/08/09 02:24:05;;;;;;;;;6.75;1.25;;;;;;;;4706981;30;45685;-79
2021/08/09 02:26:34;;;;;;;;;3.00;1.00;;;;;;;;4689343;30;45854;-79
2021/08/09 02:31:56;;;;;;;;;2.00;2.00;;;;;;;;4635437;30;46639;-78
2021/08/09 02:34:23;;;;;;;;;4.00;2.00;;;;;;;;4636127;30;45575;-79
2021/08/09 02:36:51;;;;;;;;;2.00;1.00;;;;;;;;4638995;30;46236;-79
2021/08/09 02:39:17;;;;;;;;;1.00;1.00;;;;;;;;4622847;30;52406;-79
2021/08/09 02:41:42;;;;;;;;;1.00;1.00;;;;;;;;4635983;30;45655;-78
2021/08/09 02:44:17;;;;;;;;;2.50;1.00;;;;;;;;4641545;30;45609;-78
2021/08/09 02:49:53;;;;;;;;;2.00;2.00;;;;;;;;4626187;30;45646;-79
2021/08/09 02:55:24;;;;;;;;;1.25;1.00;;;;;;;;4552799;30;45678;-80
2021/08/09 02:57:50;;;;;;;;;2.00;2.00;;;;;;;;4545679;31;45665;-80
2021/08/09 03:00:15;;;;;;;;;1.00;0.25;;;;;;;;4554402;31;46550;-81
2021/08/09 03:02:41;;;;;;;;;1.50;0.00;;;;;;;;4557316;31;47057;-81
2021/08/09 03:05:07;;;;;;;;;0.75;0.75;;;;;;;;4543081;31;45926;-80
2021/08/09 03:08:13;;;;;;;;;2.00;1.00;;;;;;;;4558453;31;50878;-80
2021/08/09 03:10:38;;;;;;;;;1.00;0.50;;;;;;;;4607397;30;45641;-79
2021/08/09 03:13:08;;;;;;;;;0.00;0.00;;;;;;;;4611626;30;45865;-81
2021/08/09 03:15:33;;;;;;;;;1.00;1.00;;;;;;;;4605434;30;45867;-80
2021/08/09 03:18:07;;;;;;;;;3.25;1.00;;;;;;;;4596361;30;45498;-80
2021/08/09 03:20:55;;;;;;;;;0.25;0.25;;;;;;;;4591282;30;45433;-85
2021/08/09 03:23:20;;;;;;;;;1.00;1.00;;;;;;;;4687663;24;46462;-88
2021/08/09 03:25:45;;;;;;;;;1.67;1.00;;;;;;;;4690919;30;45899;-87
2021/08/09 03:28:10;;;;;;;;;1.33;1.33;;;;;;;;4710837;30;45528;-86
2021/08/09 03:30:36;;;;;;;;;0.00;0.00;;;;;;;;4709357;24;45625;-87
2021/08/09 03:33:01;;;;;;;;;1.00;1.00;;;;;;;;4669784;30;47723;-88
2021/08/09 03:35:26;;;;;;;;;1.00;1.00;;;;;;;;4692932;30;45534;-88
2021/08/09 03:37:51;;;;;;;;;2.67;1.67;;;;;;;;4692773;30;46682;-87
2021/08/09 03:40:17;;;;;;;;;0.25;0.25;;;;;;;;4731811;24;45978;-86
2021/08/09 03:42:42;;;;;;;;;1.00;1.00;;;;;;;;4708827;30;48354;-87
2021/08/09 03:45:07;;;;;;;;;2.67;2.00;;;;;;;;4692782;30;45817;-87
2021/08/09 03:47:33;;;;;;;;;1.00;1.00;;;;;;;;4709294;30;45517;-87
2021/08/09 03:50:01;;;;;;;;;1.00;1.00;;;;;;;;4716526;24;44977;-87
2021/08/09 03:52:26;;;;;;;;;3.00;2.00;;;;;;;;4680510;30;45729;-88
2021/08/09 03:54:52;;;;;;;;;1.33;1.33;;;;;;;;4670894;30;54046;-88
2021/08/09 03:57:17;;;;;;;;;1.00;1.00;;;;;;;;4666665;30;46487;-87
2021/08/09 04:02:18;;;;;;;;;2.00;2.00;;;;;;;;1386140;28;46516;-78
2021/08/09 04:04:43;;;;;;;;;4.50;2.00;;;;;;;;4681330;30;45512;-78
2021/08/09 04:07:09;;;;;;;;;0.00;0.00;;;;;;;;4686484;30;45604;-78
2021/08/09 04:09:34;;;;;;;;;2.00;2.00;;;;;;;;4667251;30;47624;-78
2021/08/09 04:11:59;;;;;;;;;1.00;1.00;;;;;;;;4663801;30;48452;-78
2021/08/09 04:15:06;;;;;;;;;1.00;1.00;;;;;;;;4686145;30;45357;-78
2021/08/09 04:20:37;;;;;;;;;1.00;1.00;;;;;;;;4501596;31;45782;-79
2021/08/09 04:23:02;;;;;;;;;4.00;2.00;;;;;;;;4498818;31;46354;-79
2021/08/09 04:25:30;;;;;;;;;2.25;1.00;;;;;;;;4527164;31;45633;-81
2021/08/09 04:28:04;;;;;;;;;2.00;1.25;;;;;;;;4561287;31;46240;-80
2021/08/09 04:34:01;;;;;;;;;1.00;1.00;;;;;;;;4557756;31;46660;-78
2021/08/09 04:36:47;;;;;;;;;1.75;1.00;;;;;;;;4583225;30;45716;-77
2021/08/09 04:39:12;;;;;;;;;3.00;1.00;;;;;;;;4567663;31;45795;-78
2021/08/09 04:41:38;;;;;;;;;2.00;2.00;;;;;;;;4559987;31;46215;-79
2021/08/09 04:44:33;;;;;;;;;3.00;1.75;;;;;;;;4561090;31;46492;-78
2021/08/09 04:49:25;;;;;;;;;4.50;2.00;;;;;;;;4688159;30;45552;-87
2021/08/09 04:54:24;;;;;;;;;3.00;2.00;;;;;;;;4663845;30;45728;-83
2021/08/09 04:57:18;;;;;;;;;5.25;2.00;;;;;;;;4671627;30;45898;-80
2021/08/09 04:59:44;;;;;;;;;2.00;1.00;;;;;;;;4662998;30;45595;-80
2021/08/09 05:02:09;;;;;;;;;1.00;1.00;;;;;;;;4669893;30;45618;-80
2021/08/09 05:07:43;;;;;;;;;4.75;2.25;;;;;;;;4545688;31;45649;-80
2021/08/09 05:10:08;;;;;;;;;4.00;2.00;;;;;;;;4685273;24;45645;-87
2021/08/09 05:12:33;;;;;;;;;1.75;1.75;;;;;;;;4696661;30;45635;-86
2021/08/09 05:14:59;;;;;;;;;1.50;1.50;;;;;;;;4691857;30;45641;-87
2021/08/09 05:17:24;;;;;;;;;3.50;2.00;;;;;;;;4697307;30;45465;-88
2021/08/09 05:19:49;;;;;;;;;1.67;1.67;;;;;;;;4695664;30;45574;-87
2021/08/09 05:22:14;;;;;;;;;2.00;2.00;;;;;;;;4732953;24;45646;-80
2021/08/09 05:24:42;;;;;;;;;2.67;2.00;;;;;;;;4704480;30;46695;-80
2021/08/09 05:29:43;;;;;;;;;3.00;1.00;;;;;;;;1241918;28;46285;-81
2021/08/09 05:32:08;;;;;;;;;3.33;1.67;;;;;;;;4654228;30;45842;-80
2021/08/09 05:35:14;;;;;;;;;4.50;1.50;;;;;;;;4670870;30;46304;-80
2021/08/09 05:37:39;;;;;;;;;2.25;2.00;;;;;;;;4659637;30;45664;-80
2021/08/09 05:40:24;;;;;;;;;3.00;3.00;;;;;;;;4667523;30;45349;-81
2021/08/09 05:42:50;;;;;;;;;1.25;1.25;;;;;;;;4669106;30;45486;-80
2021/08/09 05:45:42;;;;;;;;;3.00;3.00;;;;;;;;4649601;30;47984;-80
2021/08/09 05:48:07;;;;;;;;;5.75;1.50;;;;;;;;4616097;30;46490;-80
2021/08/09 05:50:33;;;;;;;;;3.75;2.00;;;;;;;;4668087;24;45626;-86
2021/08/09 05:52:58;;;;;;;;;1.75;1.00;;;;;;;;4692940;30;45594;-87
2021/08/09 05:55:25;;;;;;;;;4.00;2.25;;;;;;;;4693817;30;45582;-86
2021/08/09 05:57:51;;;;;;;;;2.25;1.00;;;;;;;;4675981;30;45704;-87
2021/08/09 06:00:16;;;;;;;;;3.00;3.00;;;;;;;;4693922;30;45458;-87
2021/08/09 06:02:42;;;;;;;;;4.25;2.00;;;;;;;;4692831;30;45498;-87
2021/08/09 06:05:08;;;;;;;;;3.00;2.00;;;;;;;;4697013;30;45564;-88
2021/08/09 06:12:39;;;;;;;;;8.50;2.50;;;;;;;;4723926;24;45642;-81
2021/08/09 06:24:08;;;;;;;;;2.75;2.00;;;;;;;;4596005;24;45649;-89
2021/08/09 06:26:33;;;;;;;;;3.75;2.75;;;;;;;;4683024;30;46722;-86
2021/08/09 06:28:59;;;;;;;;;1.75;1.25;;;;;;;;4683837;30;45462;-87
2021/08/09 06:31:24;;;;;;;;;3.33;1.33;;;;;;;;4684193;30;46842;-87
2021/08/09 06:33:49;;;;;;;;;2.00;2.00;;;;;;;;4685332;30;45551;-86
2021/08/09 06:41:24;;;;;;;;;4.25;2.00;;;;;;;;4675072;30;45800;-80
2021/08/09 06:43:50;;;;;;;;;1.00;1.00;;;;;;;;4675320;30;45686;-80
2021/08/09 06:46:15;;;;;;;;;2.00;2.00;;;;;;;;4673799;30;46386;-80
2021/08/09 06:48:43;;;;;;;;;5.00;2.00;;;;;;;;4659121;30;45965;-80
2021/08/09 06:51:29;;;;;;;;;3.00;3.00;;;;;;;;4657760;30;45688;-80
2021/08/09 06:53:54;;;;;;;;;2.75;2.75;;;;;;;;4660158;30;45527;-80
2021/08/09 06:56:39;;;;;;;;;2.00;1.75;;;;;;;;4679611;30;46242;-80
2021/08/09 06:59:05;;;;;;;;;4.00;2.00;;;;;;;;4675227;30;45534;-80
2021/08/09 07:04:41;;;;;;;;;3.00;2.00;;;;;;;;4642586;30;45692;-80
2021/08/09 07:07:27;;;;;;;;;3.00;2.00;;;;;;;;4675169;30;45393;-79
2021/08/09 07:09:52;;;;;;;;;4.00;2.00;;;;;;;;4663316;30;45692;-79
2021/08/09 07:12:21;;;;;;;;;3.50;2.00;;;;;;;;4679549;30;45514;-80
2021/08/09 07:14:46;;;;;;;;;3.75;3.00;;;;;;;;4673911;30;46726;-79
2021/08/09 07:20:08;;;;;;;;;2.00;2.00;;;;;;;;4635302;30;45658;-81
2021/08/09 07:22:33;;;;;;;;;3.50;2.00;;;;;;;;4632218;30;45428;-81
2021/08/09 07:24:58;;;;;;;;;4.50;2.00;;;;;;;;4625339;30;45733;-81
2021/08/09 07:27:23;;;;;;;;;4.33;2.00;;;;;;;;4634171;30;45524;-80
2021/08/09 07:29:48;;;;;;;;;5.33;3.00;;;;;;;;4632753;30;45640;-80
2021/08/09 07:32:14;;;;;;;;;3.00;3.00;;;;;;;;4633189;30;45432;-80
2021/08/09 07:34:39;;;;;;;;;6.00;3.00;;;;;;;;4655445;24;45648;-81
2021/08/09 07:37:06;;;;;;;;;3.75;2.50;;;;;;;;4687235;30;46521;-81
2021/08/09 07:39:35;;;;;;;;;3.75;2.75;;;;;;;;4679882;30;46152;-81
2021/08/09 07:42:04;;;;;;;;;3.00;2.00;;;;;;;;4678040;30;45605;-80
2021/08/09 07:44:39;;;;;;;;;3.50;2.00;;;;;;;;4665886;30;45713;-81
2021/08/09 07:47:14;;;;;;;;;7.00;4.00;;;;;;;;4682175;30;46226;-80
2021/08/09 07:50:12;;;;;;;;;2.00;2.00;;;;;;;;4676195;30;45708;-80
2021/08/09 07:52:37;;;;;;;;;3.50;3.50;;;;;;;;4621469;24;45611;-88
2021/08/09 07:55:02;;;;;;;;;2.75;2.25;;;;;;;;4695800;30;45436;-86
2021/08/09 07:57:28;;;;;;;;;6.50;3.25;;;;;;;;4690736;30;48133;-88
2021/08/09 07:59:53;;;;;;;;;5.50;4.25;;;;;;;;4692084;30;45488;-89
2021/08/09 08:02:19;;;;;;;;;2.00;2.00;;;;;;;;4692822;30;45572;-90
2021/08/09 08:04:44;;;;;;;;;2.50;2.50;;;;;;;;4683811;30;45482;-88
2021/08/09 08:07:09;;;;;;;;;2.67;2.00;;;;;;;;4678881;30;47189;-88
2021/08/09 08:09:35;;;;;;;;;3.00;3.00;;;;;;;;4679605;30;45614;-88
2021/08/09 08:12:04;;;;;;;;;2.75;2.75;;;;;;;;4678003;30;45563;-88
2021/08/09 08:14:29;;;;;;;;;3.25;2.00;;;;;;;;4693447;30;45665;-89
2021/08/09 08:16:54;;;;;;;;;2.75;2.00;;;;;;;;4689648;30;45527;-88
2021/08/09 08:19:20;;;;;;;;;3.00;2.25;;;;;;;;4698674;24;45835;-89
2021/08/09 08:21:51;;;;;;;;;3.25;3.00;;;;;;;;4686384;30;45413;-88
2021/08/09 08:24:16;;;;;;;;;3.25;2.50;;;;;;;;4683207;30;45979;-87
2021/08/09 08:26:41;;;;;;;;;3.50;2.50;;;;;;;;4669905;30;47347;-87
2021/08/09 08:29:07;;;;;;;;;2.25;2.00;;;;;;;;4691844;30;45601;-89
2021/08/09 08:31:32;;;;;;;;;3.50;3.50;;;;;;;;4685300;30;45353;-87
2021/08/09 08:33:57;;;;;;;;;3.67;2.00;;;;;;;;4689258;30;47218;-88
2021/08/09 08:36:23;;;;;;;;;3.75;2.00;;;;;;;;4764896;24;46897;-89
2021/08/09 08:41:17;;;;;;;;;3.25;3.25;;;;;;;;4683231;30;45566;-80
2021/08/09 08:43:43;;;;;;;;;4.25;3.25;;;;;;;;4696493;24;46095;-87
2021/08/09 08:48:45;;;;;;;;;4.00;2.75;;;;;;;;4005706;28;45608;-80
2021/08/09 08:51:13;;;;;;;;;4.75;3.00;;;;;;;;4691971;30;45527;-80
2021/08/09 08:53:39;;;;;;;;;4.25;3.00;;;;;;;;4691268;30;45622;-81
2021/08/09 08:56:25;;;;;;;;;4.00;2.75;;;;;;;;4692587;30;46714;-78
2021/08/09 08:58:50;;;;;;;;;4.00;3.00;;;;;;;;4692884;30;45608;-79
2021/08/09 09:01:31;;;;;;;;;2.75;2.25;;;;;;;;4691145;30;46186;-79
2021/08/09 09:04:16;;;;;;;;;2.50;2.00;;;;;;;;4694545;30;45584;-80
2021/08/09 09:07:04;;;;;;;;;3.00;3.00;;;;;;;;4694785;30;47799;-78
2021/08/09 09:09:30;;;;;;;;;7.00;3.00;;;;;;;;4692281;30;45593;-79
2021/08/09 09:12:36;;;;;;;;;3.75;2.00;;;;;;;;4693569;30;51514;-78
2021/08/09 09:15:02;;;;;;;;;3.00;3.00;;;;;;;;4686626;30;45623;-78
2021/08/09 09:17:32;;;;;;;;;3.00;2.25;;;;;;;;4704648;30;45527;-80
2021/08/09 09:19:59;;;;;;;;;4.50;4.00;;;;;;;;4693223;30;45390;-79
2021/08/09 09:22:42;;;;;;;;;4.25;2.00;;;;;;;;4691813;30;45896;-77
2021/08/09 09:25:08;;;;;;;;;5.00;3.00;;;;;;;;4690146;30;45522;-79
2021/08/09 09:27:34;;;;;;;;;6.00;3.00;;;;;;;;4691319;24;47509;-86
2021/08/09 09:30:00;;;;;;;;;5.00;3.00;;;;;;;;4674471;30;47417;-87
2021/08/09 09:37:36;;;;;;;;;3.00;2.00;;;;;;;;4686586;24;45494;-86
2021/08/09 09:40:12;;;;;;;;;3.75;2.75;;;;;;;;4686898;30;45393;-86
2021/08/09 09:42:38;;;;;;;;;3.25;3.25;;;;;;;;4686786;30;45609;-87
2021/08/09 09:45:24;;;;;;;;;4.25;3.00;;;;;;;;4681507;30;45487;-87
2021/08/09 09:54:15;;;;;;;;;3.50;2.75;;;;;;;;4516438;28;45506;-78
2021/08/09 09:56:21;;;;;;;;;3.50;2.50;;;;;;;;4652027;24;46140;-88
2021/08/09 09:58:47;;;;;;;;;3.00;2.00;;;;;;;;4682355;30;47547;-87
2021/08/09 10:01:12;;;;;;;;;3.25;2.50;;;;;;;;4694546;30;45549;-87
2021/08/09 10:03:38;;;;;;;;;3.33;2.33;;;;;;;;4696697;30;45474;-89
2021/08/09 10:06:03;;;;;;;;;3.25;3.00;;;;;;;;4694042;30;45635;-87
2021/08/09 10:08:32;;;;;;;;;4.50;2.75;;;;;;;;4695420;30;45885;-88
2021/08/09 10:10:59;;;;;;;;;1.50;1.50;;;;;;;;4678318;30;45674;-88
2021/08/09 10:13:27;;;;;;;;;3.00;3.00;;;;;;;;4679440;29;45504;-90
2021/08/09 10:15:59;;;;;;;;;1.75;1.75;;;;;;;;4694349;30;45310;-88
2021/08/09 10:18:25;;;;;;;;;8.00;3.75;;;;;;;;4678265;30;47079;-89
2021/08/09 10:20:51;;;;;;;;;2.75;2.75;;;;;;;;4694993;30;45568;-88
2021/08/09 10:23:33;;;;;;;;;2.00;2.00;;;;;;;;4693663;30;45708;-86
2021/08/09 10:25:58;;;;;;;;;3.25;1.75;;;;;;;;4693989;30;45571;-88
2021/08/09 10:28:43;;;;;;;;;4.00;2.00;;;;;;;;4692860;30;46446;-89
2021/08/09 10:31:26;;;;;;;;;4.00;2.00;;;;;;;;4691194;30;45600;-88
2021/08/09 10:33:52;;;;;;;;;5.00;2.50;;;;;;;;4696128;30;45380;-88
2021/08/09 10:36:21;;;;;;;;;3.25;3.25;;;;;;;;4697388;30;45505;-86
2021/08/09 10:38:46;;;;;;;;;5.00;3.00;;;;;;;;4693212;30;45406;-88
2021/08/09 10:41:14;;;;;;;;;3.75;2.00;;;;;;;;4695459;30;45407;-88
2021/08/09 10:44:15;;;;;;;;;3.00;3.00;;;;;;;;4693877;30;45564;-87
2021/08/09 10:46:41;;;;;;;;;4.50;3.00;;;;;;;;4696087;30;46924;-87
2021/08/09 10:49:07;;;;;;;;;3.75;2.50;;;;;;;;4695296;30;46864;-88
2021/08/09 10:51:50;;;;;;;;;3.00;2.00;;;;;;;;4694630;30;45547;-86
2021/08/09 10:54:26;;;;;;;;;2.00;2.00;;;;;;;;4692673;30;45633;-87
2021/08/09 10:56:51;;;;;;;;;3.50;2.75;;;;;;;;4693474;30;46764;-88
2021/08/09 10:59:35;;;;;;;;;2.50;2.50;;;;;;;;4694924;30;47630;-86
2021/08/09 11:02:01;;;;;;;;;3.50;1.75;;;;;;;;4693979;30;45607;-88
2021/08/09 11:04:26;;;;;;;;;2.50;2.50;;;;;;;;4692250;30;45305;-88
2021/08/09 11:06:55;;;;;;;;;2.50;2.00;;;;;;;;4694984;30;45378;-88
2021/08/09 11:09:35;;;;;;;;;2.50;2.00;;;;;;;;4691465;30;45586;-86
2021/08/09 11:15:18;;;;;;;;;2.00;1.25;;;;;;;;3139472;28;46153;-78
2021/08/09 11:17:51;;;;;;;;;2.00;2.00;;;;;;;;4687823;30;45416;-78
2021/08/09 11:21:03;;;;;;;;;2.25;1.25;;;;;;;;4694316;30;45485;-79
2021/08/09 11:23:33;;;;;;;;;2.75;2.75;;;;;;;;4713639;24;45593;-88
2021/08/09 11:25:59;;;;;;;;;3.00;2.00;;;;;;;;4690086;30;45443;-87
2021/08/09 11:28:25;;;;;;;;;5.33;2.00;;;;;;;;4692075;30;51053;-87
2021/08/09 11:30:58;;;;;;;;;2.00;1.50;;;;;;;;4673366;30;47740;-88
2021/08/09 11:33:28;;;;;;;;;4.50;2.00;;;;;;;;4671719;30;45847;-88
2021/08/09 11:35:59;;;;;;;;;4.75;2.75;;;;;;;;4691241;30;45606;-89
2021/08/09 11:38:24;;;;;;;;;2.25;1.00;;;;;;;;4695348;30;45560;-87
2021/08/09 11:40:51;;;;;;;;;4.50;1.75;;;;;;;;4691625;30;45718;-89
2021/08/09 11:43:23;;;;;;;;;1.00;1.00;;;;;;;;4690946;30;45562;-87
2021/08/09 11:45:49;;;;;;;;;3.50;2.50;;;;;;;;4694118;30;45474;-87
2021/08/09 11:48:22;;;;;;;;;2.75;2.75;;;;;;;;4676749;30;45524;-87
2021/08/09 11:50:53;;;;;;;;;3.25;2.00;;;;;;;;4697497;30;47317;-88
2021/08/09 11:53:18;;;;;;;;;4.25;2.75;;;;;;;;4693885;30;45439;-87
2021/08/09 11:55:46;;;;;;;;;1.33;1.33;;;;;;;;4692149;30;45463;-87
2021/08/09 11:58:44;;;;;;;;;2.75;2.75;;;;;;;;3145540;28;46214;-80
2021/08/09 12:01:29;;;;;;;;;3.25;2.00;;;;;;;;4691627;30;48260;-79
2021/08/09 12:09:13;;;;;;;;;3.00;2.00;;;;;;;;1202538;24;47058;-78
2021/08/09 12:12:04;;;;;;;;;4.25;2.00;;;;;;;;4678077;30;48325;-78
2021/08/09 12:14:31;;;;;;;;;1.75;1.50;;;;;;;;4604744;30;45560;-78
2021/08/09 12:23:24;;;;;;;;;5.25;2.50;;;;;;;;4629581;24;47431;-87
2021/08/09 12:25:49;;;;;;;;;2.00;2.00;;;;;;;;4697881;24;45165;-87
2021/08/09 12:28:14;;;;;;;;;1.50;1.50;;;;;;;;4693295;30;45512;-87
2021/08/09 12:30:50;;;;;;;;;1.33;1.33;;;;;;;;4697770;30;45535;-88
2021/08/09 12:33:15;;;;;;;;;2.00;2.00;;;;;;;;4691336;30;47329;-88
2021/08/09 12:35:41;;;;;;;;;2.00;1.00;;;;;;;;4680196;30;45659;-89
2021/08/09 12:38:07;;;;;;;;;1.75;1.75;;;;;;;;4694299;30;45290;-87
2021/08/09 12:40:37;;;;;;;;;3.25;2.50;;;;;;;;4677635;30;55087;-88
2021/08/09 12:43:04;;;;;;;;;1.00;1.00;;;;;;;;4694258;30;45562;-87
2021/08/09 12:45:29;;;;;;;;;2.00;1.00;;;;;;;;4696398;30;45503;-88
2021/08/09 12:47:54;;;;;;;;;1.00;1.00;;;;;;;;4709758;24;45688;-79
2021/08/09 12:50:26;;;;;;;;;1.00;1.00;;;;;;;;4668069;30;45661;-80
2021/08/09 12:52:54;;;;;;;;;1.00;1.00;;;;;;;;4697636;30;45657;-79
2021/08/09 12:55:19;;;;;;;;;4.25;1.75;;;;;;;;4697320;30;45583;-78
2021/08/09 12:57:53;;;;;;;;;1.00;0.67;;;;;;;;4689517;30;45440;-77
2021/08/09 13:00:20;;;;;;;;;3.25;1.00;;;;;;;;4671607;30;45624;-77
2021/08/09 13:03:28;;;;;;;;;1.00;1.00;;;;;;;;4684278;30;46421;-79
2021/08/09 13:05:53;;;;;;;;;2.00;1.25;;;;;;;;4562459;30;45764;-79
2021/08/09 13:08:18;;;;;;;;;2.50;1.25;;;;;;;;4557862;30;45671;-78
2021/08/09 13:10:44;;;;;;;;;2.00;0.75;;;;;;;;4579554;30;45449;-77
2021/08/09 13:13:16;;;;;;;;;2.00;1.67;;;;;;;;4581081;30;45515;-77
2021/08/09 13:15:41;;;;;;;;;3.75;1.00;;;;;;;;4682583;24;45479;-88
2021/08/09 13:18:06;;;;;;;;;1.00;0.50;;;;;;;;4677737;30;45661;-88
2021/08/09 13:20:32;;;;;;;;;3.75;1.25;;;;;;;;4695417;30;45576;-87
2021/08/09 13:22:57;;;;;;;;;1.00;1.00;;;;;;;;4693632;30;47218;-89
2021/08/09 13:25:22;;;;;;;;;2.00;2.00;;;;;;;;4693895;30;45675;-88
2021/08/09 13:27:48;;;;;;;;;2.00;1.00;;;;;;;;4695720;30;45467;-88
2021/08/09 13:30:13;;;;;;;;;2.75;1.00;;;;;;;;4678466;30;45624;-87
2021/08/09 13:32:38;;;;;;;;;3.00;1.00;;;;;;;;4695084;30;45466;-87
2021/08/09 13:35:04;;;;;;;;;1.00;1.00;;;;;;;;4697933;30;45632;-87
2021/08/09 13:37:29;;;;;;;;;1.50;1.00;;;;;;;;4694443;30;45679;-88
2021/08/09 13:39:58;;;;;;;;;2.00;1.00;;;;;;;;4698347;24;45641;-77
2021/08/09 13:42:23;;;;;;;;;1.75;1.75;;;;;;;;4681305;30;46511;-78
2021/08/09 13:44:48;;;;;;;;;1.00;1.00;;;;;;;;4677150;30;45509;-79
2021/08/09 13:47:16;;;;;;;;;2.00;2.00;;;;;;;;4681365;30;45543;-78
2021/08/09 13:49:41;;;;;;;;;1.00;1.00;;;;;;;;4651810;24;47006;-88
2021/08/09 13:52:07;;;;;;;;;2.50;1.00;;;;;;;;4690627;30;45528;-89
2021/08/09 13:54:32;;;;;;;;;1.75;1.00;;;;;;;;4686643;30;45617;-87
2021/08/09 13:56:57;;;;;;;;;2.75;1.00;;;;;;;;4686383;30;45849;-89
2021/08/09 13:59:22;;;;;;;;;1.00;1.00;;;;;;;;4674034;30;45746;-90
2021/08/09 14:04:23;;;;;;;;;3.00;1.00;;;;;;;;1217242;28;46448;-76
2021/08/09 14:06:48;;;;;;;;;0.75;0.75;;;;;;;;4717256;24;45257;-88
2021/08/09 14:09:13;;;;;;;;;1.33;1.33;;;;;;;;4694467;30;45451;-89
2021/08/09 14:11:38;;;;;;;;;1.25;1.25;;;;;;;;4696412;30;46322;-89
2021/08/09 14:14:04;;;;;;;;;2.00;2.00;;;;;;;;4693889;30;45482;-88
2021/08/09 14:16:30;;;;;;;;;2.25;1.00;;;;;;;;4692104;30;45955;-90
2021/08/09 14:18:56;;;;;;;;;2.00;1.75;;;;;;;;4680142;30;45671;-88
2021/08/09 14:21:21;;;;;;;;;2.00;2.00;;;;;;;;4695194;30;50601;-89
2021/08/09 14:29:38;;;;;;;;;2.75;1.00;;;;;;;;3943455;28;45848;-77
2021/08/09 14:32:03;;;;;;;;;1.00;1.00;;;;;;;;4692710;30;46314;-77
2021/08/09 14:34:28;;;;;;;;;0.50;0.50;;;;;;;;4695579;30;45565;-77
2021/08/09 14:37:19;;;;;;;;;1.00;1.00;;;;;;;;4697958;30;46174;-77
2021/08/09 14:40:14;;;;;;;;;1.00;1.00;;;;;;;;4696306;30;45667;-76
2021/08/09 14:45:07;;;;;;;;;4.00;1.00;;;;;;;;4670331;30;45405;-88
2021/08/09 14:47:32;;;;;;;;;2.25;1.00;;;;;;;;4675781;30;45848;-88
2021/08/09 14:49:57;;;;;;;;;4.25;1.50;;;;;;;;4669636;30;45504;-87
2021/08/09 14:52:23;;;;;;;;;3.75;2.00;;;;;;;;4694402;24;45740;-78
2021/08/09 14:55:44;;;;;;;;;1.00;1.00;;;;;;;;4705994;30;45481;-78
2021/08/09 14:58:02;;;;;;;;;1.00;1.00;;;;;;;;4666476;30;45743;-77
2021/08/09 15:00:48;;;;;;;;;4.00;1.00;;;;;;;;4694534;30;45496;-78
2021/08/09 15:03:14;;;;;;;;;1.75;1.00;;;;;;;;4694606;30;46872;-78
2021/08/09 15:09:21;;;;;;;;;;;;;;;;;;;;;
2021/08/09 15:14:57;;;;;;;;;1.00;1.00;;;;;;;;4464286;31;46507;-78
2021/08/09 15:17:30;;;;;;;;;2.00;2.00;;;;;;;;4470150;31;45733;-78
2021/08/09 15:19:55;;;;;;;;;2.50;1.75;;;;;;;;4531743;24;45544;-89
2021/08/09 15:22:20;;;;;;;;;1.50;0.75;;;;;;;;4663926;30;45599;-88
2021/08/09 15:24:46;;;;;;;;;0.50;0.50;;;;;;;;4684831;30;46548;-88
2021/08/09 15:30:01;;;;;;;;;2.75;1.75;;;;;;;;4748439;24;45594;-89
2021/08/09 15:32:26;;;;;;;;;3.50;1.25;;;;;;;;4683730;30;45428;-87
2021/08/09 15:34:52;;;;;;;;;5.00;2.00;;;;;;;;4700929;30;46164;-87
2021/08/09 15:37:17;;;;;;;;;1.75;1.75;;;;;;;;4696853;30;45640;-87
2021/08/09 15:42:11;;;;;;;;;0.75;0.75;;;;;;;;4685121;30;46163;-88
2021/08/09 15:44:36;;;;;;;;;1.00;1.00;;;;;;;;4689072;30;47082;-88
2021/08/09 15:47:02;;;;;;;;;2.25;2.00;;;;;;;;4717935;24;45782;-86
2021/08/09 15:49:28;;;;;;;;;1.25;0.50;;;;;;;;4704803;30;45488;-87
2021/08/09 15:51:53;;;;;;;;;1.25;1.00;;;;;;;;4708051;30;53595;-89
2021/08/09 15:54:21;;;;;;;;;1.50;1.50;;;;;;;;4693682;30;48262;-88
2021/08/09 15:56:47;;;;;;;;;2.00;2.00;;;;;;;;4708618;30;45517;-88
2021/08/09 15:59:12;;;;;;;;;1.00;1.00;;;;;;;;4689033;30;45685;-88
2021/08/09 16:01:38;;;;;;;;;1.00;0.75;;;;;;;;4692779;29;45489;-87
2021/08/09 16:04:04;;;;;;;;;2.00;2.00;;;;;;;;4710427;29;46445;-89
2021/08/09 16:06:29;;;;;;;;;2.00;2.00;;;;;;;;4702523;30;45476;-88
2021/08/09 16:08:54;;;;;;;;;2.00;1.33;;;;;;;;4708195;30;45649;-88
2021/08/09 16:11:19;;;;;;;;;2.00;1.00;;;;;;;;4711401;30;45454;-88
2021/08/09 16:13:45;;;;;;;;;2.00;1.00;;;;;;;;4708659;30;46308;-88
2021/08/09 16:16:10;;;;;;;;;2.00;2.00;;;;;;;;4707784;30;45528;-88
2021/08/09 16:18:36;;;;;;;;;3.33;1.67;;;;;;;;4705831;30;45565;-88
2021/08/09 16:21:01;;;;;;;;;2.00;2.00;;;;;;;;4704540;30;45793;-88
2021/08/09 16:23:26;;;;;;;;;2.50;1.25;;;;;;;;4702374;30;46571;-90
2021/08/09 16:25:53;;;;;;;;;3.00;1.00;;;;;;;;4692518;30;45487;-88
2021/08/09 16:28:18;;;;;;;;;2.00;1.25;;;;;;;;4709767;30;45527;-88
2021/08/09 16:30:44;;;;;;;;;1.25;1.25;;;;;;;;4708449;30;45679;-89
2021/08/09 16:33:09;;;;;;;;;2.25;1.50;;;;;;;;4704918;30;45575;-88
2021/08/09 16:35:36;;;;;;;;;1.50;1.50;;;;;;;;4708364;30;45485;-88
2021/08/09 16:38:01;;;;;;;;;3.50;2.00;;;;;;;;4689476;30;45704;-87
2021/08/09 16:40:27;;;;;;;;;2.00;2.00;;;;;;;;4707036;30;45566;-89
2021/08/09 16:42:53;;;;;;;;;5.00;2.00;;;;;;;;4694544;30;46931;-89
2021/08/09 16:45:19;;;;;;;;;3.00;1.75;;;;;;;;4708698;29;45472;-88
2021/08/09 16:47:44;;;;;;;;;2.50;2.00;;;;;;;;4709371;30;46405;-89
2021/08/09 16:50:09;;;;;;;;;2.00;2.00;;;;;;;;4709637;30;45472;-89
2021/08/09 16:52:34;;;;;;;;;3.75;2.00;;;;;;;;4710348;30;47393;-88
2021/08/09 16:54:59;;;;;;;;;4.00;2.00;;;;;;;;4714340;29;45486;-88
2021/08/09 16:57:26;;;;;;;;;2.33;2.00;;;;;;;;4690674;30;45501;-89
2021/08/09 16:59:51;;;;;;;;;2.25;1.75;;;;;;;;4705747;30;45583;-88
2021/08/09 17:02:16;;;;;;;;;1.75;1.50;;;;;;;;4713572;30;46524;-86
2021/08/09 17:04:41;;;;;;;;;2.00;2.00;;;;;;;;4707601;30;46753;-88
2021/08/09 17:07:06;;;;;;;;;2.33;2.00;;;;;;;;4713431;30;45367;-88
2021/08/09 17:09:32;;;;;;;;;1.67;1.67;;;;;;;;4711028;30;45529;-87
2021/08/09 17:11:57;;;;;;;;;1.33;1.33;;;;;;;;4695392;30;47413;-88
2021/08/09 17:14:22;;;;;;;;;2.00;2.00;;;;;;;;4708825;30;47205;-88